createdAt,value
2023-10-29T00:00:46.200Z,2.60
2023-10-29T00:03:13.829Z,1.50
2023-10-29T00:05:41.536Z,1.75
2023-10-29T00:08:11.081Z,1.67
2023-10-29T00:10:38.597Z,1.40
2023-10-29T00:13:06.139Z,1.83
2023-10-29T00:15:33.683Z,1.60
2023-10-29T00:18:01.618Z,1.40
2023-10-29T00:20:29.375Z,1.50
2023-10-29T00:22:56.969Z,1.60
2023-10-29T00:25:25.771Z,1.40
2023-10-29T00:27:53.274Z,1.40
2023-10-29T00:30:20.745Z,1.20
2023-10-29T00:32:48.394Z,1.10
2023-10-29T00:35:16.155Z,1.23
2023-10-29T00:37:43.629Z,1.52
2023-10-29T00:40:11.652Z,1.40
2023-10-29T00:42:40.468Z,1.27
2023-10-29T00:45:08.903Z,1.33
2023-10-29T00:47:36.640Z,1.42
2023-10-29T00:50:05.135Z,1.80
2023-10-29T00:52:32.905Z,1.55
2023-10-29T00:55:00.406Z,1.38
2023-10-29T00:57:28.190Z,1.70
2023-10-29T00:59:58.159Z,1.20
2023-10-29T01:02:26.349Z,1.30
2023-10-29T01:04:54.022Z,2.58
2023-10-29T01:07:21.581Z,1.42
2023-10-29T01:09:49.542Z,1.10
2023-10-29T01:12:17.994Z,1.42
2023-10-29T01:14:46.362Z,1.40
2023-10-29T01:17:15.427Z,1.35
2023-10-29T01:19:42.973Z,1.70
2023-10-29T01:22:11.050Z,1.13
2023-10-29T01:24:39.826Z,1.40
2023-10-29T01:27:09.075Z,1.23
2023-10-29T01:29:36.778Z,1.25
2023-10-29T01:32:04.504Z,1.42
2023-10-29T01:34:33.300Z,2.17
2023-10-29T01:37:00.798Z,1.23
2023-10-29T01:39:29.010Z,1.75
2023-10-29T01:41:59.111Z,1.20
2023-10-29T01:44:26.924Z,1.45
2023-10-29T01:46:54.408Z,1.20
2023-10-29T01:49:21.899Z,1.15
2023-10-29T01:51:51.134Z,1.23
2023-10-29T01:54:18.646Z,1.30
2023-10-29T01:56:46.166Z,1.42
2023-10-29T01:59:15.733Z,1.10
2023-10-29T02:01:43.608Z,1.27
2023-10-29T02:04:11.684Z,1.10
2023-10-29T02:06:41.023Z,1.65
2023-10-29T02:09:11.519Z,1.00
2023-10-29T02:11:39.608Z,1.17
2023-10-29T02:14:07.356Z,1.25
2023-10-29T02:16:34.950Z,1.00
2023-10-29T02:19:02.504Z,0.95
2023-10-29T02:21:30.061Z,1.70
2023-10-29T02:24:02.327Z,1.10
2023-10-29T02:26:30.312Z,1.40
2023-10-29T02:28:57.878Z,1.30
2023-10-29T02:31:25.468Z,1.08
2023-10-29T02:33:53.002Z,1.30
2023-10-29T02:36:20.498Z,1.05
2023-10-29T02:38:48.015Z,1.33
2023-10-29T02:41:16.898Z,1.40
2023-10-29T02:43:44.411Z,1.45
2023-10-29T02:46:12.496Z,1.40
2023-10-29T02:48:40.209Z,1.50
2023-10-29T02:51:12.433Z,1.20
2023-10-29T02:53:40.064Z,1.60
2023-10-29T02:56:07.668Z,1.42
2023-10-29T02:58:36.512Z,1.27
2023-10-29T03:01:08.197Z,1.17
2023-10-29T03:03:36.558Z,1.58
2023-10-29T03:06:05.938Z,1.50
2023-10-29T03:08:33.484Z,1.15
2023-10-29T03:11:01.474Z,1.40
2023-10-29T03:13:29.438Z,1.42
2023-10-29T03:15:58.289Z,1.30
2023-10-29T03:18:25.947Z,1.40
2023-10-29T03:20:53.540Z,1.25
2023-10-29T03:23:21.117Z,0.80
2023-10-29T03:25:48.623Z,1.13
2023-10-29T03:28:16.115Z,1.77
2023-10-29T03:30:43.675Z,1.20
2023-10-29T03:33:12.678Z,1.25
2023-10-29T03:35:40.308Z,1.02
2023-10-29T03:38:08.961Z,1.20
2023-10-29T03:40:38.065Z,1.00
2023-10-29T03:43:05.610Z,1.17
2023-10-29T03:45:33.200Z,1.15
2023-10-29T03:48:00.790Z,1.63
2023-10-29T03:50:29.716Z,1.67
2023-10-29T03:52:57.233Z,1.05
2023-10-29T03:55:25.153Z,1.13
2023-10-29T03:57:52.692Z,1.20
2023-10-29T04:00:20.192Z,1.40
2023-10-29T04:02:48.957Z,1.20
2023-10-29T04:05:17.304Z,1.13
2023-10-29T04:07:46.138Z,1.48
2023-10-29T04:10:13.616Z,0.98
2023-10-29T04:12:41.200Z,1.00
2023-10-29T04:15:09.823Z,1.40
2023-10-29T04:17:37.518Z,1.55
2023-10-29T04:20:06.889Z,1.05
2023-10-29T04:22:35.057Z,0.82
2023-10-29T04:25:03.910Z,1.00
2023-10-29T04:27:31.412Z,1.08
2023-10-29T04:29:59.401Z,1.23
2023-10-29T04:32:27.098Z,1.10
2023-10-29T04:34:54.602Z,1.20
2023-10-29T04:37:23.843Z,0.90
2023-10-29T04:39:52.132Z,0.90
2023-10-29T04:42:20.975Z,1.17
2023-10-29T04:44:49.061Z,0.95
2023-10-29T04:47:18.001Z,0.93
2023-10-29T04:49:45.999Z,1.08
2023-10-29T04:52:13.521Z,0.80
2023-10-29T04:54:43.525Z,1.00
2023-10-29T04:57:11.066Z,0.65
2023-10-29T04:59:39.914Z,0.90
2023-10-29T05:02:07.561Z,0.90
2023-10-29T05:04:35.061Z,0.95
2023-10-29T05:07:02.684Z,1.00
2023-10-29T05:09:30.184Z,1.05
2023-10-29T05:11:57.739Z,1.20
2023-10-29T05:14:25.269Z,1.15
2023-10-29T05:16:54.221Z,0.80
2023-10-29T05:19:22.361Z,0.80
2023-10-29T05:21:51.106Z,1.20
2023-10-29T05:24:18.765Z,0.90
2023-10-29T05:26:46.314Z,0.93
2023-10-29T05:29:13.853Z,0.98
2023-10-29T05:31:41.445Z,0.98
2023-10-29T05:34:10.320Z,0.93
2023-10-29T05:36:37.804Z,1.45
2023-10-29T05:39:08.050Z,0.90
2023-10-29T05:41:35.606Z,0.90
2023-10-29T05:44:03.200Z,0.98
2023-10-29T05:46:30.811Z,1.02
2023-10-29T05:48:58.324Z,1.23
2023-10-29T05:51:27.190Z,0.80
2023-10-29T05:53:54.718Z,0.73
2023-10-29T05:56:22.289Z,1.15
2023-10-29T05:58:49.867Z,0.70
2023-10-29T06:01:17.430Z,0.70
2023-10-29T06:03:45.169Z,1.02
2023-10-29T06:06:12.852Z,0.68
2023-10-29T06:08:41.715Z,0.60
2023-10-29T06:11:09.217Z,0.90
2023-10-29T06:13:36.757Z,0.80
2023-10-29T06:16:09.033Z,0.80
2023-10-29T06:18:36.852Z,0.90
2023-10-29T06:21:04.948Z,0.88
2023-10-29T06:23:32.606Z,0.80
2023-10-29T06:26:01.462Z,0.90
2023-10-29T06:28:28.945Z,0.70
2023-10-29T06:30:56.412Z,0.60
2023-10-29T06:33:24.220Z,0.80
2023-10-29T06:35:51.853Z,1.30
2023-10-29T06:38:19.378Z,0.75
2023-10-29T06:40:46.871Z,1.08
2023-10-29T06:43:15.673Z,0.70
2023-10-29T06:45:43.555Z,0.82
2023-10-29T06:48:11.121Z,0.70
2023-10-29T06:50:38.724Z,0.65
2023-10-29T06:53:06.890Z,1.35
2023-10-29T06:55:34.441Z,0.90
2023-10-29T06:58:01.903Z,0.90
2023-10-29T07:00:32.805Z,0.77
2023-10-29T07:03:00.592Z,0.70
2023-10-29T07:05:28.500Z,1.10
2023-10-29T07:07:56.400Z,0.60
2023-10-29T07:10:24.361Z,1.88
2023-10-29T07:12:54.149Z,0.40
2023-10-29T07:15:21.681Z,0.70
2023-10-29T07:17:50.616Z,0.80
2023-10-29T07:20:18.102Z,0.80
2023-10-29T07:22:45.843Z,0.95
2023-10-29T07:25:13.527Z,0.60
2023-10-29T07:27:41.060Z,1.13
2023-10-29T07:30:10.369Z,0.60
2023-10-29T07:32:37.997Z,0.85
2023-10-29T07:35:07.410Z,0.80
2023-10-29T07:37:34.882Z,0.73
2023-10-29T07:40:02.376Z,0.60
2023-10-29T07:42:29.945Z,0.68
2023-10-29T07:44:57.506Z,0.70
2023-10-29T07:47:25.047Z,0.73
2023-10-29T07:49:53.118Z,0.90
2023-10-29T07:52:21.920Z,0.70
2023-10-29T07:54:49.599Z,0.75
2023-10-29T07:57:17.163Z,0.95
2023-10-29T07:59:44.934Z,0.88
2023-10-29T08:02:13.454Z,1.55
2023-10-29T08:04:40.938Z,0.80
2023-10-29T08:07:08.541Z,1.05
2023-10-29T08:09:37.370Z,0.70
2023-10-29T08:12:05.577Z,0.93
2023-10-29T08:14:33.607Z,0.90
2023-10-29T08:17:01.624Z,1.13
2023-10-29T08:19:29.125Z,1.15
2023-10-29T08:21:57.595Z,1.00
2023-10-29T08:24:25.402Z,0.77
2023-10-29T08:26:55.160Z,1.00
2023-10-29T08:29:22.685Z,0.85
2023-10-29T08:31:50.333Z,0.93
2023-10-29T08:34:17.868Z,1.02
2023-10-29T08:36:45.377Z,1.02
2023-10-29T08:39:14.262Z,1.33
2023-10-29T08:41:41.862Z,0.90
2023-10-29T08:44:10.772Z,0.90
2023-10-29T08:46:38.281Z,0.90
2023-10-29T08:49:05.780Z,0.60
2023-10-29T08:51:33.324Z,0.77
2023-10-29T08:54:03.705Z,0.90
2023-10-29T08:56:31.638Z,0.65
2023-10-29T08:58:59.184Z,1.05
2023-10-29T09:01:28.058Z,0.80
2023-10-29T09:03:56.674Z,0.80
2023-10-29T09:06:25.419Z,0.88
2023-10-29T09:08:53.744Z,0.70
2023-10-29T09:11:21.468Z,0.63
2023-10-29T09:13:49.241Z,0.90
2023-10-29T09:16:17.021Z,0.82
2023-10-29T09:18:45.923Z,0.82
2023-10-29T09:21:13.485Z,0.82
2023-10-29T09:23:41.014Z,0.95
2023-10-29T09:26:09.279Z,0.73
2023-10-29T09:28:36.777Z,0.70
2023-10-29T09:31:05.380Z,0.65
2023-10-29T09:33:32.933Z,0.80
2023-10-29T09:36:03.774Z,0.70
2023-10-29T09:38:31.296Z,1.30
2023-10-29T09:40:59.017Z,0.60
2023-10-29T09:43:29.140Z,0.70
2023-10-29T09:45:57.015Z,0.57
2023-10-29T09:48:26.458Z,1.02
2023-10-29T09:50:55.090Z,0.88
2023-10-29T09:53:25.089Z,0.88
2023-10-29T09:55:53.434Z,1.00
2023-10-29T09:58:23.577Z,0.88
2023-10-29T10:00:51.471Z,0.75
2023-10-29T10:03:19.085Z,1.10
2023-10-29T10:05:48.421Z,0.95
2023-10-29T10:08:15.973Z,0.93
2023-10-29T10:10:48.103Z,0.73
2023-10-29T10:13:16.773Z,1.27
2023-10-29T10:15:45.001Z,0.68
2023-10-29T10:18:14.916Z,0.90
2023-10-29T10:20:43.856Z,1.05
2023-10-29T10:23:12.674Z,0.90
2023-10-29T10:25:41.247Z,0.95
2023-10-29T10:28:10.112Z,0.88
2023-10-29T10:30:39.659Z,0.80
2023-10-29T10:33:12.588Z,1.65
2023-10-29T10:35:41.792Z,1.08
2023-10-29T10:38:10.110Z,0.85
2023-10-29T10:40:39.027Z,0.70
2023-10-29T10:43:06.900Z,1.23
2023-10-29T10:45:37.954Z,1.02
2023-10-29T10:48:07.767Z,1.08
2023-10-29T10:50:36.609Z,1.17
2023-10-29T10:53:05.083Z,1.05
2023-10-29T10:58:04.704Z,1.38
2023-10-29T11:00:33.875Z,1.30
2023-10-29T11:03:05.487Z,2.65
2023-10-29T11:05:39.717Z,1.10
2023-10-29T11:08:08.501Z,0.90
2023-10-29T11:10:36.097Z,0.90
2023-10-29T11:13:19.234Z,0.82
2023-10-29T11:15:48.370Z,0.98
2023-10-29T11:18:28.328Z,0.73
2023-10-29T11:21:00.733Z,0.93
2023-10-29T11:23:30.123Z,0.80
2023-10-29T11:26:21.658Z,0.82
2023-10-29T11:28:49.913Z,0.80
2023-10-29T11:31:18.985Z,0.80
2023-10-29T11:33:49.156Z,0.88
2023-10-29T11:36:32.847Z,1.02
2023-10-29T11:39:37.184Z,0.80
2023-10-29T11:42:26.942Z,0.88
2023-10-29T11:45:37.788Z,0.70
2023-10-29T11:48:12.551Z,0.90
2023-10-29T11:50:43.189Z,0.80
2023-10-29T11:53:25.579Z,0.73
2023-10-29T11:55:54.333Z,0.98
2023-10-29T11:58:23.507Z,0.93
2023-10-29T12:00:51.476Z,0.90
2023-10-29T12:03:20.948Z,0.75
2023-10-29T12:05:53.548Z,1.10
2023-10-29T12:08:21.571Z,0.70
2023-10-29T12:10:50.680Z,0.95
2023-10-29T12:13:19.802Z,0.90
2023-10-29T12:15:48.843Z,1.00
2023-10-29T12:18:23.028Z,0.95
2023-10-29T12:20:51.293Z,1.08
2023-10-29T12:23:20.356Z,0.88
2023-10-29T12:25:47.937Z,0.90
2023-10-29T12:28:16.073Z,0.63
2023-10-29T12:30:47.576Z,1.00
2023-10-29T12:33:22.257Z,0.80
2023-10-29T12:35:51.892Z,1.00
2023-10-29T12:38:22.272Z,1.25
2023-10-29T12:41:08.229Z,0.70
2023-10-29T12:43:41.055Z,0.77
2023-10-29T12:46:10.382Z,0.88
2023-10-29T12:48:57.887Z,0.85
2023-10-29T12:51:27.171Z,0.85
2023-10-29T12:54:10.336Z,0.80
2023-10-29T12:56:50.726Z,1.00
2023-10-29T12:59:18.570Z,0.65
2023-10-29T13:01:53.360Z,1.10
2023-10-29T13:04:21.605Z,0.80
2023-10-29T13:06:49.086Z,0.80
2023-10-29T13:09:21.272Z,0.90
2023-10-29T13:11:49.725Z,0.90
2023-10-29T13:14:17.312Z,1.10
2023-10-29T13:16:45.016Z,0.85
2023-10-29T13:19:13.398Z,0.90
2023-10-29T13:21:42.131Z,1.20
2023-10-29T13:24:10.057Z,1.15
2023-10-29T13:26:39.608Z,1.10
2023-10-29T13:29:07.752Z,1.63
2023-10-29T13:31:35.670Z,1.60
2023-10-29T13:34:03.228Z,1.13
2023-10-29T13:36:30.821Z,1.02
2023-10-29T13:38:58.392Z,0.98
2023-10-29T13:41:25.953Z,1.25
2023-10-29T13:43:54.942Z,1.35
2023-10-29T13:46:24.012Z,1.13
2023-10-29T13:48:54.169Z,1.20
2023-10-29T13:51:22.317Z,1.02
2023-10-29T13:53:50.470Z,0.80
2023-10-29T13:56:18.704Z,1.00
2023-10-29T13:58:47.080Z,0.90
2023-10-29T14:01:20.436Z,1.15
2023-10-29T14:03:48.545Z,0.95
2023-10-29T14:06:16.236Z,1.10
2023-10-29T14:08:45.119Z,1.00
2023-10-29T14:11:14.859Z,1.08
2023-10-29T14:13:46.441Z,0.98
2023-10-29T14:16:15.216Z,1.02
2023-10-29T14:18:45.520Z,1.13
2023-10-29T14:21:13.648Z,0.85
2023-10-29T14:23:43.062Z,1.42
2023-10-29T14:26:10.769Z,0.82
2023-10-29T14:28:38.405Z,1.33
2023-10-29T14:31:05.985Z,1.10
2023-10-29T14:33:33.599Z,1.02
2023-10-29T14:36:02.912Z,1.17
2023-10-29T14:38:31.168Z,0.82
2023-10-29T14:40:59.929Z,1.25
2023-10-29T14:43:27.791Z,1.00
2023-10-29T14:45:57.002Z,0.90
2023-10-29T14:48:24.559Z,1.15
2023-10-29T14:50:53.025Z,0.93
2023-10-29T14:53:21.956Z,1.27
2023-10-29T14:55:49.816Z,1.33
2023-10-29T14:58:17.890Z,1.10
2023-10-29T15:00:46.310Z,1.05
2023-10-29T15:03:14.646Z,0.90
2023-10-29T15:05:42.413Z,1.45
2023-10-29T15:08:10.021Z,1.05
2023-10-29T15:10:38.942Z,1.00
2023-10-29T15:13:06.742Z,1.35
2023-10-29T15:15:35.093Z,1.00
2023-10-29T15:18:02.681Z,1.40
2023-10-29T15:20:31.391Z,1.10
2023-10-29T15:23:02.294Z,1.23
2023-10-29T15:25:31.042Z,1.52
2023-10-29T15:28:00.070Z,1.40
2023-10-29T15:30:27.835Z,1.55
2023-10-29T15:32:55.452Z,1.77
2023-10-29T15:35:23.086Z,1.65
2023-10-29T15:37:50.583Z,1.25
2023-10-29T15:40:18.195Z,1.20
2023-10-29T15:42:45.681Z,1.50
2023-10-29T15:45:15.001Z,1.60
2023-10-29T15:47:42.643Z,1.40
2023-10-29T15:50:12.631Z,1.70
2023-10-29T15:52:40.356Z,1.38
2023-10-29T15:55:09.154Z,1.58
2023-10-29T15:57:36.794Z,1.65
2023-10-29T16:00:06.177Z,1.40
2023-10-29T16:02:35.041Z,1.58
2023-10-29T16:05:03.192Z,1.63
2023-10-29T16:07:30.727Z,1.23
2023-10-29T16:09:58.255Z,1.60
2023-10-29T16:12:25.993Z,1.60
2023-10-29T16:14:54.062Z,1.90
2023-10-29T16:17:21.581Z,1.90
2023-10-29T16:19:50.406Z,1.63
2023-10-29T16:22:17.930Z,1.35
2023-10-29T16:24:45.444Z,1.63
2023-10-29T16:27:13.022Z,1.30
2023-10-29T16:29:40.700Z,1.40
2023-10-29T16:32:08.361Z,1.38
2023-10-29T16:34:35.918Z,1.63
2023-10-29T16:37:05.197Z,2.13
2023-10-29T16:39:32.719Z,1.13
2023-10-29T16:42:01.292Z,2.28
2023-10-29T16:44:31.200Z,1.30
2023-10-29T16:46:59.799Z,1.80
2023-10-29T16:49:27.336Z,1.70
2023-10-29T16:51:55.919Z,1.23
2023-10-29T16:54:24.942Z,1.77
2023-10-29T16:56:52.635Z,1.52
2023-10-29T16:59:20.676Z,1.40
2023-10-29T17:01:49.028Z,1.77
2023-10-29T17:04:17.008Z,1.98
2023-10-29T17:06:44.598Z,2.08
2023-10-29T17:09:12.163Z,1.83
2023-10-29T17:11:41.203Z,1.80
2023-10-29T17:14:09.058Z,2.13
2023-10-29T17:16:37.040Z,2.10
2023-10-29T17:19:05.299Z,1.20
2023-10-29T17:21:33.056Z,1.58
2023-10-29T17:24:00.932Z,2.00
2023-10-29T17:26:28.558Z,1.92
2023-10-29T17:31:26.349Z,1.60
2023-10-29T17:33:54.094Z,1.90
2023-10-29T17:36:21.675Z,1.52
2023-10-29T17:38:49.228Z,1.80
2023-10-29T17:41:18.572Z,1.48
2023-10-29T17:43:47.313Z,2.80
2023-10-29T17:46:17.161Z,1.65
2023-10-29T17:48:46.088Z,1.55
2023-10-29T17:51:14.093Z,1.92
2023-10-29T17:53:45.351Z,2.05
2023-10-29T17:56:13.013Z,1.45
2023-10-29T17:58:41.843Z,1.60
2023-10-29T18:01:09.417Z,1.60
2023-10-29T18:03:38.836Z,1.73
2023-10-29T18:06:16.355Z,1.83
2023-10-29T18:08:44.979Z,1.98
2023-10-29T18:11:13.907Z,1.83
2023-10-29T18:13:41.533Z,2.17
2023-10-29T18:16:09.676Z,2.40
2023-10-29T18:18:38.862Z,1.98
2023-10-29T18:21:06.450Z,2.40
2023-10-29T18:23:33.993Z,2.00
2023-10-29T18:26:02.034Z,2.13
2023-10-29T18:28:29.562Z,1.45
2023-10-29T18:30:57.092Z,2.05
2023-10-29T18:33:27.410Z,2.17
2023-10-29T18:35:57.208Z,1.73
2023-10-29T18:38:24.805Z,2.25
2023-10-29T18:40:56.086Z,1.80
2023-10-29T18:43:25.716Z,2.20
2023-10-29T18:45:53.405Z,2.08
2023-10-29T18:48:21.020Z,1.98
2023-10-29T18:50:48.967Z,2.08
2023-10-29T18:53:17.801Z,1.83
2023-10-29T18:55:45.288Z,1.80
2023-10-29T18:58:12.770Z,1.73
2023-10-29T19:00:40.388Z,1.80
2023-10-29T19:03:08.080Z,2.05
2023-10-29T19:05:35.887Z,1.67
2023-10-29T19:08:04.552Z,1.90
2023-10-29T19:10:34.097Z,2.50
2023-10-29T19:13:01.584Z,1.95
2023-10-29T19:15:30.299Z,1.90
2023-10-29T19:17:57.949Z,2.33
2023-10-29T19:20:26.000Z,2.10
2023-10-29T19:22:54.530Z,2.13
2023-10-29T19:25:22.435Z,2.20
2023-10-29T19:27:51.322Z,2.05
2023-10-29T19:30:18.952Z,1.90
2023-10-29T19:32:50.006Z,2.78
2023-10-29T19:35:17.579Z,2.67
2023-10-29T19:37:46.100Z,2.17
2023-10-29T19:40:14.500Z,2.38
2023-10-29T19:42:42.013Z,1.95
2023-10-29T19:45:11.328Z,2.45
2023-10-29T19:47:40.084Z,2.60
2023-10-29T19:50:09.553Z,2.65
2023-10-29T19:52:37.069Z,2.60
2023-10-29T19:55:06.016Z,2.50
2023-10-29T19:57:34.034Z,2.92
2023-10-29T20:00:01.588Z,2.33
2023-10-29T20:02:31.079Z,2.50
2023-10-29T20:04:58.605Z,3.38
2023-10-29T20:07:26.168Z,2.33
2023-10-29T20:09:53.983Z,3.05
2023-10-29T20:12:21.754Z,3.58
2023-10-29T20:14:50.113Z,4.80
2023-10-29T20:17:17.656Z,3.33
2023-10-29T20:19:46.592Z,2.65
2023-10-29T20:22:14.462Z,3.63
2023-10-29T20:24:42.000Z,2.70
2023-10-29T20:27:09.677Z,2.78
2023-10-29T20:29:37.217Z,2.70
2023-10-29T20:32:06.480Z,2.40
2023-10-29T20:34:34.097Z,2.90
2023-10-29T20:37:03.454Z,2.70
2023-10-29T20:39:30.965Z,2.90
2023-10-29T20:41:58.928Z,3.05
2023-10-29T20:44:26.490Z,2.72
2023-10-29T20:46:53.997Z,2.80
2023-10-29T20:49:21.494Z,2.58
2023-10-29T20:51:49.024Z,2.90
2023-10-29T20:54:17.967Z,2.40
2023-10-29T20:56:45.444Z,2.65
2023-10-29T20:59:12.982Z,2.35
2023-10-29T21:01:40.631Z,1.90
2023-10-29T21:04:08.228Z,2.10
2023-10-29T21:06:36.027Z,2.35
2023-10-29T21:09:06.949Z,2.10
2023-10-29T21:11:36.233Z,2.30
2023-10-29T21:14:03.798Z,1.88
2023-10-29T21:16:31.622Z,2.08
2023-10-29T21:18:59.320Z,2.15
2023-10-29T21:21:27.335Z,2.00
2023-10-29T21:23:55.986Z,1.95
2023-10-29T21:26:23.682Z,2.40
2023-10-29T21:28:52.577Z,2.42
2023-10-29T21:31:21.057Z,2.33
2023-10-29T21:33:48.725Z,2.22
2023-10-29T21:36:16.347Z,2.25
2023-10-29T21:38:46.418Z,2.08
2023-10-29T21:41:15.409Z,2.22
2023-10-29T21:43:43.762Z,2.45
2023-10-29T21:46:12.999Z,2.97
2023-10-29T21:48:40.559Z,3.00
2023-10-29T21:51:08.262Z,3.28
2023-10-29T21:53:36.455Z,3.05
2023-10-29T21:56:05.762Z,3.22
2023-10-29T21:58:33.955Z,2.45
2023-10-29T22:01:01.944Z,2.80
2023-10-29T22:03:33.111Z,3.13
2023-10-29T22:06:03.161Z,2.60
2023-10-29T22:08:30.781Z,2.72
2023-10-29T22:10:59.781Z,3.17
2023-10-29T22:13:27.981Z,3.35
2023-10-29T22:15:56.152Z,2.70
2023-10-29T22:18:23.710Z,2.70
2023-10-29T22:21:00.367Z,2.78
2023-10-29T22:23:28.143Z,2.42
2023-10-29T22:25:55.653Z,3.20
2023-10-29T22:28:24.005Z,2.72
2023-10-29T22:30:52.135Z,3.25
2023-10-29T22:33:19.998Z,2.25
2023-10-29T22:35:47.546Z,2.42
2023-10-29T22:38:16.352Z,2.65
2023-10-29T22:40:43.852Z,3.22
2023-10-29T22:43:11.976Z,3.15
2023-10-29T22:45:39.809Z,3.47
2023-10-29T22:48:07.449Z,2.97
2023-10-29T22:50:34.978Z,3.10
2023-10-29T22:53:02.488Z,2.83
2023-10-29T22:55:31.313Z,2.78
2023-10-29T22:57:59.664Z,3.58
2023-10-29T23:00:27.199Z,3.78
2023-10-29T23:02:55.546Z,2.90
2023-10-29T23:05:23.202Z,3.05
2023-10-29T23:07:50.749Z,3.03
2023-10-29T23:10:18.273Z,2.22
2023-10-29T23:12:47.114Z,2.38
2023-10-29T23:15:14.786Z,2.53
2023-10-29T23:17:42.329Z,2.28
2023-10-29T23:20:11.323Z,2.17
2023-10-29T23:22:38.930Z,1.75
2023-10-29T23:25:07.832Z,1.80
2023-10-29T23:27:35.616Z,2.03
2023-10-29T23:30:05.759Z,1.90
2023-10-29T23:32:33.341Z,1.90
2023-10-29T23:35:00.904Z,2.20
2023-10-29T23:37:28.697Z,2.03
2023-10-29T23:39:56.267Z,1.75
2023-10-29T23:42:24.266Z,1.50
2023-10-29T23:44:51.770Z,1.40
2023-10-29T23:47:20.700Z,1.60
2023-10-29T23:49:48.788Z,2.08
2023-10-29T23:52:16.437Z,1.42
2023-10-29T23:54:45.704Z,1.50
2023-10-29T23:57:14.171Z,1.75
2023-10-29T23:59:41.697Z,1.40
